Time;durP1;ratioP1;P1;durP2;ratioP2;P2;SDS_P1;SDS_P2;PMS_P1;PMS_P2;Temp;Humidity;BMP_temperature;BMP_pressure;BME280_temperature;BME280_humidity;BME280_pressure;Samples;Min_cycle;Max_cycle;Signal;HPM_P1;HPM_P2
2021/07/13 00:00:19;;;;;;;9.70;7.55;;;22.40;99.90;;;;;;5089803;28;20028;-76
2021/07/13 00:02:44;;;;;;;12.95;7.75;;;22.40;99.90;;;;;;5092294;28;20107;-75
2021/07/13 00:05:13;;;;;;;7.97;7.18;;;22.40;99.90;;;;;;5091594;28;20028;-75
2021/07/13 00:07:39;;;;;;;13.32;7.80;;;22.40;99.90;;;;;;5091493;28;20079;-75
2021/07/13 00:10:07;;;;;;;10.18;7.50;;;22.30;99.90;;;;;;5091392;28;20032;-76
2021/07/13 00:12:33;;;;;;;12.00;8.48;;;22.30;99.90;;;;;;5091194;28;20031;-76
2021/07/13 00:14:59;;;;;;;10.43;7.70;;;22.30;99.90;;;;;;5090833;28;20119;-76
2021/07/13 00:17:24;;;;;;;12.23;8.60;;;22.30;99.90;;;;;;5090223;28;20107;-75
2021/07/13 00:19:50;;;;;;;11.07;7.80;;;22.30;99.90;;;;;;5091165;28;20060;-74
2021/07/13 00:22:16;;;;;;;12.35;7.85;;;22.30;99.90;;;;;;5091019;28;20043;-75
2021/07/13 00:24:42;;;;;;;12.75;7.85;;;22.30;99.90;;;;;;5091127;28;20040;-75
2021/07/13 00:27:08;;;;;;;11.05;8.23;;;22.30;99.90;;;;;;5091788;28;20023;-75
2021/07/13 00:29:34;;;;;;;13.35;7.90;;;22.20;99.90;;;;;;5091168;28;20031;-76
2021/07/13 00:31:59;;;;;;;10.27;7.93;;;22.20;99.90;;;;;;5091465;28;20036;-75
2021/07/13 00:34:25;;;;;;;11.50;8.23;;;22.20;99.90;;;;;;5090961;28;20032;-76
2021/07/13 00:36:50;;;;;;;9.98;8.43;;;22.10;99.90;;;;;;5090147;28;20040;-75
2021/07/13 00:39:16;;;;;;;14.95;8.48;;;22.20;99.90;;;;;;5091135;28;20024;-75
2021/07/13 00:41:42;;;;;;;11.75;8.77;;;22.10;99.90;;;;;;5091265;28;20121;-75
2021/07/13 00:44:07;;;;;;;12.48;8.52;;;22.10;99.90;;;;;;5091088;28;20040;-75
2021/07/13 00:46:47;;;;;;;12.73;8.93;;;22.00;99.90;;;;;;5090881;28;20035;-76
2021/07/13 00:49:15;;;;;;;12.10;9.07;;;21.90;99.90;;;;;;5089139;28;20038;-76
2021/07/13 00:51:41;;;;;;;13.85;8.63;;;21.90;99.90;;;;;;5090488;28;20035;-76
2021/07/13 00:54:11;;;;;;;11.43;9.25;;;21.80;99.90;;;;;;5073636;28;20024;-76
2021/07/13 00:56:42;;;;;;;10.85;9.60;;;21.90;99.90;;;;;;5090806;28;20032;-76
2021/07/13 00:59:09;;;;;;;12.23;8.73;;;21.90;99.90;;;;;;5090815;28;20039;-77
2021/07/13 01:01:35;;;;;;;14.90;9.07;;;21.80;99.90;;;;;;5091028;28;20024;-75
2021/07/13 01:04:03;;;;;;;10.80;8.85;;;21.80;99.90;;;;;;5090738;28;20115;-77
2021/07/13 01:06:57;;;;;;;11.35;9.00;;;21.70;99.90;;;;;;5090402;28;20020;-75
2021/07/13 01:09:38;;;;;;;12.10;9.52;;;21.60;99.90;;;;;;5090586;28;20031;-75
2021/07/13 01:12:39;;;;;;;19.13;9.32;;;21.60;99.90;;;;;;5092040;28;20031;-74
2021/07/13 01:15:07;;;;;;;18.75;10.18;;;21.60;99.90;;;;;;5093960;28;20549;-75
2021/07/13 01:17:37;;;;;;;14.77;9.77;;;21.60;99.90;;;;;;5094842;28;20059;-75
2021/07/13 01:20:31;;;;;;;12.65;9.07;;;21.40;99.90;;;;;;5094689;28;20063;-75
2021/07/13 01:23:08;;;;;;;12.50;9.35;;;21.40;99.90;;;;;;5094408;28;20040;-76
2021/07/13 01:25:54;;;;;;;18.97;10.50;;;21.40;99.90;;;;;;5094535;28;20147;-77
2021/07/13 01:28:22;;;;;;;16.40;9.98;;;21.40;99.90;;;;;;5093439;28;20339;-77
2021/07/13 01:30:54;;;;;;;17.33;10.98;;;21.50;99.90;;;;;;5093151;28;20514;-76
2021/07/13 01:33:26;;;;;;;14.20;10.70;;;21.50;99.90;;;;;;5094452;28;20077;-76
2021/07/13 01:36:24;;;;;;;12.18;10.68;;;21.40;99.90;;;;;;5112962;27;20051;-76
2021/07/13 01:38:52;;;;;;;14.18;10.68;;;21.30;99.90;;;;;;5130192;27;20031;-76
2021/07/13 01:41:22;;;;;;;15.07;10.20;;;21.20;99.90;;;;;;5116817;27;20104;-76
2021/07/13 01:43:49;;;;;;;12.13;9.98;;;21.10;99.90;;;;;;5135301;27;20031;-76
2021/07/13 01:46:16;;;;;;;13.05;11.10;;;21.00;99.90;;;;;;5116466;27;20397;-76
2021/07/13 01:48:43;;;;;;;16.17;10.70;;;21.00;99.90;;;;;;5135552;27;20047;-76
2021/07/13 01:51:09;;;;;;;14.23;10.70;;;21.10;99.90;;;;;;5135402;27;20033;-75
2021/07/13 01:53:37;;;;;;;16.50;10.77;;;21.00;99.90;;;;;;5116795;27;20031;-74
2021/07/13 01:56:04;;;;;;;;;;;21.00;99.90;;;;;;5135130;27;20055;-76
2021/07/13 01:58:31;;;;;;;12.25;10.98;;;20.90;99.90;;;;;;5134673;27;19922;-76
2021/07/13 02:01:04;;;;;;;15.88;11.50;;;20.90;99.90;;;;;;5134802;27;20589;-76
2021/07/13 02:03:30;;;;;;;15.32;11.38;;;20.90;99.90;;;;;;5134705;27;20031;-76
2021/07/13 02:05:57;;;;;;;15.10;11.70;;;20.80;99.90;;;;;;5135111;27;20026;-76
2021/07/13 02:08:24;;;;;;;13.85;11.95;;;20.80;99.90;;;;;;5135136;27;20038;-76
2021/07/13 02:10:50;;;;;;;12.75;11.45;;;20.80;99.90;;;;;;5134870;27;20506;-76
2021/07/13 02:13:17;;;;;;;12.73;11.27;;;20.70;99.90;;;;;;5134534;27;20041;-75
2021/07/13 02:15:43;;;;;;;20.95;11.45;;;20.70;99.90;;;;;;5134846;27;20023;-76
2021/07/13 02:18:10;;;;;;;22.23;11.55;;;20.60;99.90;;;;;;5135056;27;20092;-75
2021/07/13 02:20:36;;;;;;;15.43;11.30;;;20.50;99.90;;;;;;5134520;27;20050;-75
2021/07/13 02:23:02;;;;;;;16.00;11.45;;;20.50;99.90;;;;;;5133451;27;20027;-74
2021/07/13 02:25:28;;;;;;;18.05;11.20;;;20.60;99.90;;;;;;5134497;27;20031;-74
2021/07/13 02:28:00;;;;;;;14.27;12.77;;;20.50;99.90;;;;;;5134416;27;20037;-75
2021/07/13 02:30:30;;;;;;;12.88;11.57;;;20.50;99.90;;;;;;5134250;27;20448;-75
2021/07/13 02:33:02;;;;;;;13.43;11.60;;;20.50;99.90;;;;;;5134602;27;20038;-76
2021/07/13 02:35:37;;;;;;;13.80;12.02;;;20.50;99.90;;;;;;5134533;27;20031;-75
2021/07/13 02:38:04;;;;;;;15.48;12.55;;;20.40;99.90;;;;;;5116758;27;20035;-75
2021/07/13 02:40:30;;;;;;;18.40;12.90;;;20.40;99.90;;;;;;5134109;27;20050;-74
2021/07/13 02:42:56;;;;;;;20.17;13.77;;;20.30;99.90;;;;;;5134116;27;20027;-75
2021/07/13 02:45:22;;;;;;;24.45;12.95;;;20.30;99.90;;;;;;5134101;27;20024;-75
2021/07/13 02:47:49;;;;;;;16.58;12.75;;;20.30;99.90;;;;;;5134485;27;20460;-74
2021/07/13 02:50:17;;;;;;;14.60;13.10;;;20.30;99.90;;;;;;5133914;27;20035;-75
2021/07/13 02:52:44;;;;;;;16.25;13.55;;;20.40;99.90;;;;;;5133873;27;20130;-75
2021/07/13 02:55:19;;;;;;;17.13;12.53;;;20.50;99.90;;;;;;5133891;27;20027;-76
2021/07/13 02:57:46;;;;;;;16.65;12.50;;;20.50;99.90;;;;;;5133809;27;20031;-75
2021/07/13 03:00:14;;;;;;;14.57;11.75;;;20.40;99.90;;;;;;5134386;27;20061;-75
2021/07/13 03:02:42;;;;;;;14.50;12.73;;;20.30;99.90;;;;;;5133560;27;20274;-74
2021/07/13 03:05:12;;;;;;;17.85;12.93;;;20.30;99.90;;;;;;5133400;27;20023;-75
2021/07/13 03:07:39;;;;;;;17.52;13.43;;;20.20;99.90;;;;;;5133267;27;20024;-76
2021/07/13 03:10:05;;;;;;;18.45;14.35;;;20.20;99.90;;;;;;5115468;27;20076;-76
2021/07/13 03:12:31;;;;;;;23.77;14.10;;;20.20;99.90;;;;;;5133018;27;20042;-76
2021/07/13 03:14:59;;;;;;;17.08;13.90;;;20.20;99.90;;;;;;5134108;27;20028;-76
2021/07/13 03:17:25;;;;;;;;;;;20.20;99.90;;;;;;5115750;27;20027;-76
2021/07/13 03:19:51;;;;;;;17.65;13.43;;;20.10;99.90;;;;;;5133367;27;20342;-74
2021/07/13 03:22:39;;;;;;;18.35;13.30;;;20.10;99.90;;;;;;5133830;27;20027;-74
2021/07/13 03:25:06;;;;;;;18.15;14.45;;;20.10;99.90;;;;;;5132939;27;20110;-74
2021/07/13 03:27:33;;;;;;;18.30;14.02;;;20.10;99.90;;;;;;5133453;27;20022;-74
2021/07/13 03:30:00;;;;;;;18.38;13.50;;;20.10;99.90;;;;;;5133506;27;20042;-74
2021/07/13 03:32:27;;;;;;;24.10;15.40;;;20.00;99.90;;;;;;5133055;27;20031;-75
2021/07/13 03:34:53;;;;;;;21.67;15.10;;;20.00;99.90;;;;;;5132936;27;20028;-75
2021/07/13 03:37:19;;;;;;;15.07;13.48;;;20.10;99.90;;;;;;5114705;27;20369;-75
2021/07/13 03:39:46;;;;;;;18.58;13.50;;;20.10;99.90;;;;;;5132499;27;20115;-75
2021/07/13 03:42:13;;;;;;;18.10;14.10;;;20.20;99.90;;;;;;5133603;27;20023;-74
2021/07/13 03:44:40;;;;;;;15.82;12.90;;;20.30;99.90;;;;;;5132854;27;20031;-74
2021/07/13 03:47:09;;;;;;;19.63;13.50;;;20.20;99.90;;;;;;5132810;27;20042;-75
2021/07/13 03:49:36;;;;;;;15.52;13.70;;;20.10;99.90;;;;;;5132516;27;20027;-73
2021/07/13 03:52:01;;;;;;;16.60;13.32;;;20.10;99.90;;;;;;5132696;27;20035;-76
2021/07/13 03:54:27;;;;;;;19.10;14.55;;;20.10;99.90;;;;;;5132352;27;20210;-74
2021/07/13 03:56:53;;;;;;;16.20;13.88;;;20.10;99.90;;;;;;5133162;27;20027;-75
2021/07/13 03:59:18;;;;;;;18.55;13.93;;;20.00;99.90;;;;;;5132634;27;20469;-75
2021/07/13 04:01:44;;;;;;;21.77;14.25;;;20.00;99.90;;;;;;5132443;27;20027;-75
2021/07/13 04:04:10;;;;;;;19.55;14.60;;;20.00;99.90;;;;;;5132439;27;20365;-74
2021/07/13 04:06:36;;;;;;;17.63;14.13;;;20.00;99.90;;;;;;5132458;27;20028;-74
2021/07/13 04:09:04;;;;;;;17.70;14.48;;;20.10;99.90;;;;;;5132977;27;20094;-74
2021/07/13 04:11:30;;;;;;;18.50;15.10;;;20.20;99.90;;;;;;5114045;27;20038;-75
2021/07/13 04:13:55;;;;;;;18.83;13.88;;;20.30;99.90;;;;;;5132267;27;20023;-75
2021/07/13 04:16:21;;;;;;;16.27;13.98;;;20.20;99.90;;;;;;5132286;27;20069;-76
2021/07/13 04:18:46;;;;;;;17.00;13.85;;;20.10;99.90;;;;;;5131974;27;20039;-76
2021/07/13 04:21:12;;;;;;;15.70;13.90;;;20.10;99.90;;;;;;5132749;27;20027;-75
2021/07/13 04:23:38;;;;;;;17.45;14.88;;;20.10;99.90;;;;;;5132130;27;20096;-76
2021/07/13 04:26:05;;;;;;;16.60;14.77;;;20.20;99.90;;;;;;5131987;27;20377;-75
2021/07/13 04:28:31;;;;;;;21.20;14.93;;;20.20;99.90;;;;;;5132025;27;20095;-76
2021/07/13 04:31:01;;;;;;;16.98;15.10;;;20.30;99.90;;;;;;5131966;27;20019;-74
2021/07/13 04:33:27;;;;;;;22.23;14.88;;;20.40;99.90;;;;;;5131830;27;20015;-74
2021/07/13 04:35:53;;;;;;;16.98;13.43;;;20.40;99.90;;;;;;5132509;27;20023;-76
2021/07/13 04:38:20;;;;;;;15.48;13.82;;;20.40;99.90;;;;;;5132007;27;20023;-74
2021/07/13 04:40:46;;;;;;;16.45;13.70;;;20.40;99.90;;;;;;5131638;27;20035;-75
2021/07/13 04:43:12;;;;;;;15.65;13.60;;;20.50;99.90;;;;;;5131703;27;20368;-75
2021/07/13 04:45:37;;;;;;;20.02;15.07;;;20.60;99.90;;;;;;5131198;27;20467;-75
2021/07/13 04:48:03;;;;;;;18.52;14.75;;;20.60;99.90;;;;;;5131878;27;20030;-75
2021/07/13 04:50:29;;;;;;;16.38;14.60;;;20.70;99.90;;;;;;5131648;27;20547;-74
2021/07/13 04:52:55;;;;;;;20.95;14.82;;;20.70;99.90;;;;;;5131731;27;20027;-74
2021/07/13 04:55:20;;;;;;;16.20;14.00;;;20.80;99.90;;;;;;5131704;27;20035;-76
2021/07/13 04:57:46;;;;;;;16.85;14.20;;;20.90;99.90;;;;;;5131392;27;20027;-75
2021/07/13 05:00:13;;;;;;;21.65;15.13;;;20.90;99.90;;;;;;5132090;27;20045;-76
2021/07/13 05:02:39;;;;;;;19.60;14.65;;;21.00;99.90;;;;;;5131755;28;20038;-75
2021/07/13 05:05:06;;;;;;;17.85;13.15;;;21.00;99.90;;;;;;5131556;28;20084;-79
2021/07/13 05:07:32;;;;;;;16.50;13.93;;;21.10;99.90;;;;;;5131712;28;20035;-74
2021/07/13 05:09:58;;;;;;;22.13;14.93;;;21.10;99.90;;;;;;5131454;28;20042;-75
2021/07/13 05:12:23;;;;;;;18.63;14.20;;;21.20;99.90;;;;;;5113219;28;20030;-75
2021/07/13 05:14:49;;;;;;;16.73;13.95;;;21.20;99.90;;;;;;5131815;28;20078;-75
2021/07/13 05:17:15;;;;;;;21.15;15.07;;;21.30;99.90;;;;;;5131257;28;20109;-77
2021/07/13 05:19:43;;;;;;;16.55;13.98;;;21.40;99.90;;;;;;5131172;28;20060;-77
2021/07/13 05:22:10;;;;;;;19.17;13.70;;;21.50;99.90;;;;;;5131435;28;20031;-75
2021/07/13 05:24:35;;;;;;;18.02;13.63;;;21.60;99.90;;;;;;5130909;28;20026;-76
2021/07/13 05:27:01;;;;;;;15.52;13.73;;;21.60;99.90;;;;;;5131503;28;20023;-76
2021/07/13 05:29:27;;;;;;;13.93;12.15;;;21.60;99.90;;;;;;5131216;28;20361;-76
2021/07/13 05:31:53;;;;;;;14.95;12.98;;;21.60;99.90;;;;;;5131233;28;20043;-78
2021/07/13 05:34:19;;;;;;;13.43;12.05;;;21.60;99.90;;;;;;5131201;28;20027;-76
2021/07/13 05:36:44;;;;;;;20.42;12.38;;;21.60;99.90;;;;;;5130965;28;20620;-76
2021/07/13 05:39:10;;;;;;;18.17;12.05;;;21.60;99.90;;;;;;5131715;28;20106;-76
2021/07/13 05:41:37;;;;;;;23.48;13.48;;;21.70;99.90;;;;;;5131148;28;20084;-78
2021/07/13 05:44:06;;;;;;;15.05;11.88;;;21.70;99.90;;;;;;5131319;28;20040;-77
2021/07/13 05:46:32;;;;;;;17.30;12.07;;;21.80;99.90;;;;;;5131023;28;20069;-77
2021/07/13 05:48:57;;;;;;;18.60;11.48;;;21.90;99.90;;;;;;5130956;28;20069;-77
2021/07/13 05:51:23;;;;;;;13.45;12.10;;;22.00;99.90;;;;;;5104775;28;20052;-77
2021/07/13 05:53:49;;;;;;;14.85;11.65;;;22.00;99.90;;;;;;5089149;28;20015;-77
2021/07/13 05:56:14;;;;;;;19.83;12.73;;;22.00;99.90;;;;;;5090062;28;20036;-76
2021/07/13 05:58:40;;;;;;;18.75;11.68;;;22.10;99.90;;;;;;5074784;28;20037;-77
2021/07/13 06:01:06;;;;;;;12.10;10.85;;;22.20;99.90;;;;;;5093716;28;20047;-77
2021/07/13 06:03:32;;;;;;;18.17;11.43;;;22.30;99.90;;;;;;5075853;28;20016;-77
2021/07/13 06:05:58;;;;;;;21.00;11.88;;;22.40;99.90;;;;;;5094240;28;20302;-77
2021/07/13 06:08:24;;;;;;;12.82;10.70;;;22.40;99.90;;;;;;5093717;28;20028;-78
2021/07/13 06:10:50;;;;;;;19.30;10.57;;;22.40;99.90;;;;;;5093600;28;20069;-76
2021/07/13 06:13:15;;;;;;;12.95;9.43;;;22.40;99.90;;;;;;5093283;28;20028;-77
2021/07/13 06:15:41;;;;;;;14.77;9.98;;;22.50;99.90;;;;;;5093325;28;20032;-76
2021/07/13 06:18:07;;;;;;;16.55;11.35;;;22.50;99.90;;;;;;5094307;28;20031;-76
2021/07/13 06:20:36;;;;;;;20.90;10.18;;;22.60;99.90;;;;;;5093618;28;20653;-76
2021/07/13 06:23:02;;;;;;;18.23;10.32;;;22.70;99.90;;;;;;5093267;28;20474;-77
2021/07/13 06:25:28;;;;;;;20.75;10.23;;;22.70;99.90;;;;;;5092288;28;20184;-76
2021/07/13 06:27:54;;;;;;;23.55;11.30;;;22.80;99.90;;;;;;5093519;28;20038;-76
2021/07/13 06:30:20;;;;;;;23.75;9.50;;;22.80;99.90;;;;;;5093164;28;20361;-76
2021/07/13 06:32:46;;;;;;;21.55;9.73;;;22.80;99.90;;;;;;5093436;28;20024;-77
2021/07/13 06:35:13;;;;;;;21.77;9.02;;;22.80;99.90;;;;;;5093430;28;20039;-78
2021/07/13 06:37:38;;;;;;;20.67;9.68;;;22.80;99.90;;;;;;5093057;28;20097;-76
2021/07/13 06:40:06;;;;;;;18.13;9.10;;;22.80;99.90;;;;;;5092852;28;20040;-73
2021/07/13 06:42:31;;;;;;;21.88;9.38;;;22.80;99.90;;;;;;5092850;28;20114;-73
2021/07/13 06:44:57;;;;;;;14.38;7.50;;;22.90;99.90;;;;;;5093240;28;20107;-72
2021/07/13 06:47:23;;;;;;;16.92;8.00;;;22.90;99.90;;;;;;5092561;28;20059;-72
2021/07/13 06:49:48;;;;;;;16.73;8.23;;;22.90;99.90;;;;;;5092812;28;20476;-74
2021/07/13 06:52:14;;;;;;;16.13;8.50;;;23.00;99.90;;;;;;5092696;28;20036;-73
2021/07/13 06:54:40;;;;;;;15.00;8.18;;;23.10;99.90;;;;;;5092691;28;20119;-73
2021/07/13 06:57:05;;;;;;;11.15;7.15;;;23.10;99.90;;;;;;5092838;28;20020;-73
2021/07/13 06:59:33;;;;;;;11.70;7.28;;;23.10;99.90;;;;;;5091857;28;20374;-74
2021/07/13 07:01:59;;;;;;;17.67;7.22;;;23.10;99.90;;;;;;5092503;28;20085;-72
2021/07/13 07:04:25;;;;;;;12.30;7.22;;;23.10;99.90;;;;;;5091524;28;20173;-72
2021/07/13 07:06:50;;;;;;;11.07;6.75;;;23.10;99.90;;;;;;5092516;28;20111;-73
2021/07/13 07:09:16;;;;;;;16.92;6.80;;;23.20;99.90;;;;;;5092360;28;20431;-74
2021/07/13 07:11:42;;;;;;;21.80;7.15;;;23.20;99.90;;;;;;5092324;28;20036;-74
2021/07/13 07:14:07;;;;;;;10.80;7.07;;;23.30;99.90;;;;;;5092353;28;20040;-72
2021/07/13 07:16:33;;;;;;;10.73;6.78;;;23.30;99.90;;;;;;5092324;28;20035;-74
2021/07/13 07:18:58;;;;;;;15.20;6.95;;;23.40;99.90;;;;;;5092151;28;20020;-74
2021/07/13 07:21:24;;;;;;;12.52;5.57;;;23.30;99.90;;;;;;5092231;28;20366;-73
2021/07/13 07:23:50;;;;;;;15.07;6.43;;;23.30;99.50;;;;;;5092413;28;20139;-74
2021/07/13 07:26:15;;;;;;;15.82;6.40;;;23.40;99.50;;;;;;5091830;28;20106;-74
2021/07/13 07:28:41;;;;;;;10.80;5.32;;;23.40;99.60;;;;;;5092155;28;20032;-74
2021/07/13 07:31:06;;;;;;;12.30;5.97;;;23.50;99.70;;;;;;5091888;28;20028;-74
2021/07/13 07:33:32;;;;;;;11.77;5.22;;;23.50;99.20;;;;;;5091934;28;20028;-74
2021/07/13 07:35:58;;;;;;;9.70;4.65;;;23.60;99.30;;;;;;5092180;28;20487;-73
2021/07/13 07:38:23;;;;;;;10.27;5.65;;;23.50;99.20;;;;;;5091952;28;20114;-73
2021/07/13 07:40:49;;;;;;;14.35;7.82;;;23.60;99.40;;;;;;5073664;28;20390;-72
2021/07/13 07:43:15;;;;;;;10.82;5.20;;;23.70;99.50;;;;;;5091992;28;20047;-75
2021/07/13 07:45:40;;;;;;;11.35;5.25;;;23.80;99.50;;;;;;5091975;28;20345;-72
2021/07/13 07:48:07;;;;;;;9.60;5.28;;;23.80;99.30;;;;;;5092444;28;20021;-74
2021/07/13 07:50:33;;;;;;;13.85;5.40;;;23.90;99.30;;;;;;5091792;28;20063;-72
2021/07/13 07:52:58;;;;;;;9.27;5.45;;;24.00;99.30;;;;;;5090632;28;20085;-74
2021/07/13 07:55:26;;;;;;;15.77;5.60;;;24.20;99.20;;;;;;5090877;28;20452;-73
2021/07/13 07:57:53;;;;;;;15.73;5.03;;;24.30;99.00;;;;;;5091620;28;20073;-73
2021/07/13 08:00:19;;;;;;;12.40;5.47;;;24.40;99.00;;;;;;5091827;28;20047;-74
2021/07/13 08:02:45;;;;;;;17.25;6.28;;;24.40;98.70;;;;;;5091916;28;20131;-74
2021/07/13 08:05:13;;;;;;;9.88;4.60;;;24.60;98.50;;;;;;5091377;28;20032;-74
2021/07/13 08:07:39;;;;;;;;;;;24.70;98.30;;;;;;5090936;28;20462;-73
2021/07/13 08:10:06;;;;;;;14.23;4.93;;;24.80;98.10;;;;;;5091305;28;20007;-72
2021/07/13 08:12:32;;;;;;;17.60;5.10;;;24.90;98.50;;;;;;5091054;28;20060;-72
2021/07/13 08:14:58;;;;;;;6.93;4.15;;;25.10;98.00;;;;;;5091801;28;20071;-72
2021/07/13 08:17:23;;;;;;;16.73;4.30;;;25.20;97.40;;;;;;5090236;28;20302;-73
2021/07/13 08:19:49;;;;;;;15.75;5.45;;;25.20;97.30;;;;;;5091366;28;20520;-73
2021/07/13 08:22:15;;;;;;;16.70;5.60;;;25.10;97.30;;;;;;5090361;28;20249;-73
2021/07/13 08:24:41;;;;;;;12.90;5.43;;;25.20;97.30;;;;;;5091431;28;20032;-73
2021/07/13 08:27:07;;;;;;;9.93;5.22;;;25.30;97.50;;;;;;5090504;28;20047;-73
2021/07/13 08:29:33;;;;;;;13.45;5.10;;;25.60;97.10;;;;;;5091241;28;20039;-73
2021/07/13 08:31:59;;;;;;;14.85;4.32;;;26.00;97.00;;;;;;5090926;28;20084;-73
2021/07/13 08:34:30;;;;;;;13.35;4.97;;;26.20;96.40;;;;;;5091316;28;20370;-73
2021/07/13 08:36:57;;;;;;;9.15;4.43;;;26.40;95.80;;;;;;5091129;28;20021;-73
2021/07/13 08:39:23;;;;;;;14.13;5.50;;;26.60;95.70;;;;;;5090680;28;20027;-73
2021/07/13 08:41:50;;;;;;;10.98;4.75;;;27.10;95.50;;;;;;5091150;28;20280;-73
2021/07/13 08:44:16;;;;;;;12.95;4.90;;;27.60;94.40;;;;;;5090768;28;20253;-74
2021/07/13 08:46:42;;;;;;;12.55;5.25;;;27.90;94.20;;;;;;5091129;28;20111;-72
2021/07/13 08:49:10;;;;;;;10.98;4.82;;;28.30;93.70;;;;;;5090835;28;20067;-73
2021/07/13 08:51:37;;;;;;;10.88;4.35;;;28.30;93.50;;;;;;5090598;28;20452;-74
2021/07/13 08:54:04;;;;;;;13.15;4.47;;;28.10;93.30;;;;;;5091391;28;20036;-74
2021/07/13 08:56:34;;;;;;;10.20;4.00;;;28.10;93.30;;;;;;5091062;28;20467;-72
2021/07/13 08:59:01;;;;;;;10.82;4.35;;;28.10;93.40;;;;;;5090660;28;20035;-73
2021/07/13 09:01:27;;;;;;;18.10;4.88;;;28.00;93.20;;;;;;5090697;28;20059;-73
2021/07/13 09:03:58;;;;;;;10.98;5.75;;;27.90;93.10;;;;;;5090680;28;20094;-73
2021/07/13 09:06:25;;;;;;;13.10;5.13;;;28.00;92.80;;;;;;5088751;28;20651;-74
2021/07/13 09:08:50;;;;;;;14.65;5.18;;;28.10;92.60;;;;;;5090967;28;20437;-73
2021/07/13 09:11:18;;;;;;;14.20;3.97;;;28.20;92.00;;;;;;5090388;28;20032;-73
2021/07/13 09:13:47;;;;;;;4.35;3.15;;;28.60;92.10;;;;;;5090296;28;20028;-73
2021/07/13 09:16:20;;;;;;;9.95;3.08;;;29.30;91.40;;;;;;5090318;28;20363;-73
2021/07/13 09:18:48;;;;;;;4.18;2.90;;;29.90;90.50;;;;;;5090281;28;20380;-74
2021/07/13 09:21:19;;;;;;;8.18;3.28;;;30.20;91.10;;;;;;5091091;28;20043;-74
2021/07/13 09:24:02;;;;;;;9.48;2.58;;;30.60;89.80;;;;;;5072527;28;20040;-74
2021/07/13 09:26:47;;;;;;;4.63;2.65;;;30.80;87.00;;;;;;5090438;28;20458;-74
2021/07/13 09:29:36;;;;;;;5.68;2.80;;;31.00;86.20;;;;;;5090354;28;20032;-74
2021/07/13 09:32:25;;;;;;;6.50;2.63;;;31.40;86.10;;;;;;5090305;28;20464;-74
2021/07/13 09:34:55;;;;;;;17.63;4.13;;;31.70;83.40;;;;;;5094384;28;20040;-74
2021/07/13 09:37:24;;;;;;;6.65;2.72;;;31.70;78.50;;;;;;5093503;28;20381;-74
2021/07/13 09:40:10;;;;;;;8.70;5.90;;;31.40;79.50;;;;;;5093929;28;20070;-74
2021/07/13 09:42:43;;;;;;;5.53;2.53;;;31.50;79.20;;;;;;5094147;28;20046;-74
2021/07/13 09:45:15;;;;;;;5.13;2.85;;;31.60;78.80;;;;;;5094419;28;20264;-74
2021/07/13 09:47:41;;;;;;;5.03;2.78;;;31.50;76.70;;;;;;5093859;28;20035;-74
2021/07/13 09:50:09;;;;;;;11.48;2.90;;;31.40;76.60;;;;;;5093991;28;20036;-74
2021/07/13 09:52:34;;;;;;;4.68;2.75;;;31.40;77.60;;;;;;5094133;28;20092;-75
2021/07/13 09:55:12;;;;;;;6.93;3.10;;;31.10;77.30;;;;;;5094064;28;20028;-73
2021/07/13 09:57:38;;;;;;;;;;;31.30;78.10;;;;;;5094357;28;20703;-74
2021/07/13 10:00:05;;;;;;;6.07;3.20;;;31.30;77.50;;;;;;5094364;28;19915;-74
2021/07/13 10:02:31;;;;;;;6.10;4.05;;;31.50;76.50;;;;;;5093714;28;20036;-74
2021/07/13 10:04:57;;;;;;;3.78;3.17;;;31.20;77.00;;;;;;5093768;28;20059;-75
2021/07/13 10:07:24;;;;;;;3.63;2.90;;;30.90;77.00;;;;;;5093599;28;20084;-74
2021/07/13 10:09:51;;;;;;;4.50;3.42;;;30.80;76.00;;;;;;5093523;28;20101;-73
2021/07/13 10:12:19;;;;;;;4.13;3.28;;;30.70;76.40;;;;;;5094019;28;20074;-74
2021/07/13 10:14:55;;;;;;;9.63;5.78;;;30.40;76.30;;;;;;5093518;28;20028;-73
2021/07/13 10:17:23;;;;;;;9.73;5.72;;;30.40;77.50;;;;;;5093586;28;20035;-73
2021/07/13 10:20:00;;;;;;;8.13;5.15;;;30.30;77.90;;;;;;5092222;28;20050;-73
2021/07/13 10:22:27;;;;;;;8.32;4.28;;;30.40;77.30;;;;;;5093353;28;20032;-73
2021/07/13 10:24:56;;;;;;;4.23;3.73;;;30.40;76.70;;;;;;5093244;28;20044;-74
2021/07/13 10:27:32;;;;;;;7.78;3.85;;;30.30;77.20;;;;;;5091904;28;20031;-73
2021/07/13 10:30:02;;;;;;;10.27;4.50;;;30.40;77.20;;;;;;5093661;28;20028;-73
2021/07/13 10:32:27;;;;;;;6.05;4.10;;;30.50;77.00;;;;;;5092937;28;20064;-72
2021/07/13 10:34:55;;;;;;;4.60;3.92;;;30.40;76.10;;;;;;5093067;28;20052;-75
2021/07/13 10:37:38;;;;;;;4.72;3.70;;;30.20;75.60;;;;;;5093133;28;20489;-75
2021/07/13 10:40:09;;;;;;;5.57;4.07;;;30.00;75.20;;;;;;5093013;28;20044;-74
2021/07/13 10:42:40;;;;;;;9.43;4.25;;;30.10;76.70;;;;;;5093008;28;20016;-73
2021/07/13 10:45:27;;;;;;;7.65;5.25;;;30.10;77.60;;;;;;5092499;28;20131;-73
2021/07/13 10:48:08;;;;;;;6.90;4.60;;;30.00;77.00;;;;;;5092944;28;20085;-73
2021/07/13 10:50:37;;;;;;;4.35;3.90;;;30.00;77.80;;;;;;5092783;28;20032;-73
2021/07/13 10:53:04;;;;;;;8.05;3.95;;;30.10;77.70;;;;;;5092486;28;20470;-75
2021/07/13 10:55:30;;;;;;;5.28;4.10;;;30.10;77.80;;;;;;5092603;28;20040;-74
2021/07/13 10:58:11;;;;;;;5.53;4.45;;;30.10;78.50;;;;;;5092366;28;20472;-75
2021/07/13 11:00:49;;;;;;;5.55;3.70;;;30.00;77.70;;;;;;5092411;28;20016;-74
2021/07/13 11:03:30;;;;;;;6.13;4.57;;;30.00;79.10;;;;;;5093321;28;20012;-75
2021/07/13 11:05:56;;;;;;;7.10;5.38;;;30.10;78.10;;;;;;5091432;28;20048;-74
2021/07/13 11:08:47;;;;;;;5.05;4.38;;;30.20;77.30;;;;;;5092759;28;20032;-74
2021/07/13 11:11:22;;;;;;;6.97;4.50;;;30.30;75.40;;;;;;5092662;28;20036;-74
2021/07/13 11:14:05;;;;;;;8.43;4.53;;;30.40;75.10;;;;;;5092464;28;20028;-73
2021/07/13 11:16:36;;;;;;;6.75;4.35;;;30.30;74.60;;;;;;5092287;28;20032;-73
2021/07/13 11:19:11;;;;;;;4.95;4.35;;;30.30;75.10;;;;;;5092362;28;20039;-74
2021/07/13 11:21:40;;;;;;;5.88;4.63;;;30.30;75.00;;;;;;5092283;28;20024;-73
2021/07/13 11:24:06;;;;;;;7.97;4.75;;;30.20;75.90;;;;;;5092764;28;20023;-72
2021/07/13 11:26:34;;;;;;;5.38;4.82;;;30.10;76.50;;;;;;5092084;28;20526;-74
2021/07/13 11:29:02;;;;;;;10.02;5.68;;;30.10;76.40;;;;;;5092113;28;20097;-73
2021/07/13 11:31:35;;;;;;;8.80;5.50;;;30.20;74.50;;;;;;5091938;28;20044;-75
2021/07/13 11:34:02;;;;;;;6.75;5.93;;;30.10;76.40;;;;;;5091711;28;20032;-74
2021/07/13 11:36:33;;;;;;;9.45;6.20;;;30.10;75.70;;;;;;5092099;28;20027;-74
2021/07/13 11:39:01;;;;;;;8.45;5.70;;;30.20;76.40;;;;;;5092446;28;20012;-74
2021/07/13 11:41:28;;;;;;;7.15;6.20;;;30.10;76.50;;;;;;5091884;28;20036;-74
2021/07/13 11:43:57;;;;;;;7.40;5.70;;;29.90;76.40;;;;;;5091986;28;20032;-74
2021/07/13 11:46:24;;;;;;;7.18;5.85;;;29.90;76.30;;;;;;5091910;28;20432;-73
2021/07/13 11:48:57;;;;;;;8.10;6.10;;;29.90;76.00;;;;;;5090470;28;20477;-73
2021/07/13 11:51:36;;;;;;;8.00;5.75;;;30.00;75.90;;;;;;5091570;28;20024;-73
2021/07/13 11:54:03;;;;;;;8.00;6.03;;;29.60;75.80;;;;;;5092102;28;20073;-74
2021/07/13 11:56:30;;;;;;;7.45;5.68;;;29.70;77.40;;;;;;5091166;28;20024;-74
2021/07/13 11:58:57;;;;;;;7.57;6.77;;;29.80;76.40;;;;;;5091278;28;20085;-74
2021/07/13 12:01:26;;;;;;;7.75;6.32;;;29.90;75.40;;;;;;5091685;28;20449;-73
2021/07/13 12:03:52;;;;;;;9.40;6.13;;;29.90;75.80;;;;;;5091455;28;20020;-73
2021/07/13 12:06:22;;;;;;;7.45;5.75;;;29.80;75.90;;;;;;5090821;28;20347;-73
2021/07/13 12:09:14;;;;;;;7.05;5.70;;;29.70;76.40;;;;;;5091584;28;20411;-73
2021/07/13 12:11:44;;;;;;;7.18;5.55;;;29.60;76.60;;;;;;5087300;28;20277;-72
2021/07/13 12:14:16;;;;;;;7.15;6.32;;;29.60;76.40;;;;;;5090113;28;20035;-73
2021/07/13 12:16:43;;;;;;;10.35;5.95;;;29.40;76.00;;;;;;5091431;28;20032;-74
2021/07/13 12:19:20;;;;;;;9.23;6.45;;;29.30;76.60;;;;;;5091384;28;20052;-74
2021/07/13 12:21:59;;;;;;;6.67;6.03;;;29.20;76.60;;;;;;5091260;28;20086;-74
2021/07/13 12:24:35;;;;;;;7.00;6.30;;;29.20;77.50;;;;;;5091215;28;20082;-72
2021/07/13 12:27:06;;;;;;;6.85;6.15;;;29.00;78.40;;;;;;5091336;28;20103;-73
2021/07/13 12:29:32;;;;;;;7.35;6.00;;;28.90;79.10;;;;;;5091174;28;20066;-73
2021/07/13 12:31:59;;;;;;;6.70;5.53;;;28.70;79.70;;;;;;5090949;28;20449;-73
2021/07/13 12:34:37;;;;;;;6.53;5.15;;;28.80;79.60;;;;;;5091179;28;20024;-74
2021/07/13 12:37:25;;;;;;;7.20;5.95;;;28.80;79.80;;;;;;5091032;28;20055;-74
2021/07/13 12:39:51;;;;;;;;;;;28.80;78.80;;;;;;5091310;28;20047;-72
2021/07/13 12:42:24;;;;;;;8.70;6.97;;;28.70;79.10;;;;;;5091400;28;19908;-72
2021/07/13 12:44:53;;;;;;;5.72;5.22;;;28.70;79.80;;;;;;5090976;28;20264;-73